sensor_id;sensor_type;location;lat;lon;timestamp;temperature;humidity
41762;DHT22;27441;50.860;0.258;2022-12-16T00:01:13;-2.80;99.90
41762;DHT22;27441;50.860;0.258;2022-12-16T00:03:39;-2.80;99.90
41762;DHT22;27441;50.860;0.258;2022-12-16T00:06:06;-2.80;99.90
41762;DHT22;27441;50.860;0.258;2022-12-16T00:08:32;-2.80;99.90
41762;DHT22;27441;50.860;0.258;2022-12-16T00:10:58;-2.80;99.90
41762;DHT22;27441;50.860;0.258;2022-12-16T00:13:25;-2.80;99.90
41762;DHT22;27441;50.860;0.258;2022-12-16T00:15:51;-2.80;99.90
41762;DHT22;27441;50.860;0.258;2022-12-16T00:18:16;-2.70;99.90
41762;DHT22;27441;50.860;0.258;2022-12-16T00:20:47;-2.70;99.90
41762;DHT22;27441;50.860;0.258;2022-12-16T00:23:14;-2.70;99.90
41762;DHT22;27441;50.860;0.258;2022-12-16T00:25:40;-2.70;99.90
41762;DHT22;27441;50.860;0.258;2022-12-16T00:28:07;-2.70;99.90
41762;DHT22;27441;50.860;0.258;2022-12-16T00:30:32;-2.70;99.90
41762;DHT22;27441;50.860;0.258;2022-12-16T00:32:58;-2.70;99.90
41762;DHT22;27441;50.860;0.258;2022-12-16T00:35:23;-2.70;99.90
41762;DHT22;27441;50.860;0.258;2022-12-16T00:37:49;-2.70;99.90
41762;DHT22;27441;50.860;0.258;2022-12-16T00:40:15;-2.60;99.90
41762;DHT22;27441;50.860;0.258;2022-12-16T00:42:40;-2.60;99.90
41762;DHT22;27441;50.860;0.258;2022-12-16T00:45:06;-2.50;99.90
41762;DHT22;27441;50.860;0.258;2022-12-16T00:47:32;-2.50;99.90
41762;DHT22;27441;50.860;0.258;2022-12-16T00:49:57;-2.40;99.90
41762;DHT22;27441;50.860;0.258;2022-12-16T00:52:23;-2.40;99.90
41762;DHT22;27441;50.860;0.258;2022-12-16T00:54:49;-2.40;99.90
41762;DHT22;27441;50.860;0.258;2022-12-16T00:57:14;-2.40;99.90
41762;DHT22;27441;50.860;0.258;2022-12-16T00:59:40;-2.40;99.90
41762;DHT22;27441;50.860;0.258;2022-12-16T01:02:05;-2.40;99.90
41762;DHT22;27441;50.860;0.258;2022-12-16T01:04:31;-2.40;99.90
41762;DHT22;27441;50.860;0.258;2022-12-16T01:06:56;-2.30;99.90
41762;DHT22;27441;50.860;0.258;2022-12-16T01:09:22;-2.30;99.90
41762;DHT22;27441;50.860;0.258;2022-12-16T01:11:48;-2.40;99.90
41762;DHT22;27441;50.860;0.258;2022-12-16T01:14:13;-2.40;99.90
41762;DHT22;27441;50.860;0.258;2022-12-16T01:16:39;-2.50;99.90
41762;DHT22;27441;50.860;0.258;2022-12-16T01:19:04;-2.50;99.90
41762;DHT22;27441;50.860;0.258;2022-12-16T01:21:30;-2.50;99.90
41762;DHT22;27441;50.860;0.258;2022-12-16T01:23:56;-2.60;99.90
41762;DHT22;27441;50.860;0.258;2022-12-16T01:26:21;-2.60;99.90
41762;DHT22;27441;50.860;0.258;2022-12-16T01:28:47;-2.60;99.90
41762;DHT22;27441;50.860;0.258;2022-12-16T01:31:13;-2.60;99.90
41762;DHT22;27441;50.860;0.258;2022-12-16T01:33:40;-2.60;99.90
41762;DHT22;27441;50.860;0.258;2022-12-16T01:36:06;-2.60;99.90
41762;DHT22;27441;50.860;0.258;2022-12-16T01:38:32;-2.60;99.90
41762;DHT22;27441;50.860;0.258;2022-12-16T01:40:58;-2.60;99.90
41762;DHT22;27441;50.860;0.258;2022-12-16T01:43:25;-2.60;99.90
41762;DHT22;27441;50.860;0.258;2022-12-16T01:45:52;-2.60;99.90
41762;DHT22;27441;50.860;0.258;2022-12-16T01:48:20;-2.60;99.90
41762;DHT22;27441;50.860;0.258;2022-12-16T01:50:46;-2.60;99.90
41762;DHT22;27441;50.860;0.258;2022-12-16T01:53:14;-2.60;99.90
41762;DHT22;27441;50.860;0.258;2022-12-16T01:55:41;-2.60;99.90
41762;DHT22;27441;50.860;0.258;2022-12-16T01:58:11;-2.60;99.90
41762;DHT22;27441;50.860;0.258;2022-12-16T02:00:38;-2.60;99.90
41762;DHT22;27441;50.860;0.258;2022-12-16T02:03:05;-2.60;99.90
41762;DHT22;27441;50.860;0.258;2022-12-16T02:05:31;-2.70;99.90
41762;DHT22;27441;50.860;0.258;2022-12-16T02:10:28;-2.70;99.90
41762;DHT22;27441;50.860;0.258;2022-12-16T02:13:05;-2.70;99.90
41762;DHT22;27441;50.860;0.258;2022-12-16T02:15:38;-2.70;99.90
41762;DHT22;27441;50.860;0.258;2022-12-16T02:28:01;-2.60;99.90
41762;DHT22;27441;50.860;0.258;2022-12-16T02:35:45;-2.60;99.90
41762;DHT22;27441;50.860;0.258;2022-12-16T02:38:25;-2.70;99.90
41762;DHT22;27441;50.860;0.258;2022-12-16T02:40:54;-2.60;99.90
41762;DHT22;27441;50.860;0.258;2022-12-16T02:45:48;-2.60;99.90
41762;DHT22;27441;50.860;0.258;2022-12-16T02:48:14;-2.60;99.90
41762;DHT22;27441;50.860;0.258;2022-12-16T02:50:44;-2.60;99.90
41762;DHT22;27441;50.860;0.258;2022-12-16T02:53:12;-2.60;99.90
41762;DHT22;27441;50.860;0.258;2022-12-16T02:55:44;-2.50;99.90
41762;DHT22;27441;50.860;0.258;2022-12-16T02:58:21;-2.50;99.90
41762;DHT22;27441;50.860;0.258;2022-12-16T03:00:55;-2.60;99.90
41762;DHT22;27441;50.860;0.258;2022-12-16T03:03:46;-2.60;99.90
41762;DHT22;27441;50.860;0.258;2022-12-16T03:06:10;-2.60;99.90
41762;DHT22;27441;50.860;0.258;2022-12-16T03:08:38;-2.60;99.90
41762;DHT22;27441;50.860;0.258;2022-12-16T03:11:05;-2.50;99.90
41762;DHT22;27441;50.860;0.258;2022-12-16T03:13:43;-2.60;99.90
41762;DHT22;27441;50.860;0.258;2022-12-16T03:16:11;-2.60;99.90
41762;DHT22;27441;50.860;0.258;2022-12-16T03:18:39;-2.70;99.90
41762;DHT22;27441;50.860;0.258;2022-12-16T03:21:06;-2.70;99.90
41762;DHT22;27441;50.860;0.258;2022-12-16T03:23:54;-2.70;99.90
41762;DHT22;27441;50.860;0.258;2022-12-16T03:26:23;-2.70;99.90
41762;DHT22;27441;50.860;0.258;2022-12-16T03:34:25;-2.70;99.90
41762;DHT22;27441;50.860;0.258;2022-12-16T03:36:52;-2.60;99.90
41762;DHT22;27441;50.860;0.258;2022-12-16T03:39:19;-2.60;99.90
41762;DHT22;27441;50.860;0.258;2022-12-16T03:41:48;-2.60;99.90
41762;DHT22;27441;50.860;0.258;2022-12-16T03:44:14;-2.60;99.90
41762;DHT22;27441;50.860;0.258;2022-12-16T03:46:39;-2.50;99.90
41762;DHT22;27441;50.860;0.258;2022-12-16T03:49:05;-2.50;99.90
41762;DHT22;27441;50.860;0.258;2022-12-16T03:51:30;-2.50;99.90
41762;DHT22;27441;50.860;0.258;2022-12-16T03:53:56;-2.50;99.90
41762;DHT22;27441;50.860;0.258;2022-12-16T03:56:22;-2.50;99.90
41762;DHT22;27441;50.860;0.258;2022-12-16T03:58:47;-2.50;99.90
41762;DHT22;27441;50.860;0.258;2022-12-16T04:01:13;-2.50;99.90
41762;DHT22;27441;50.860;0.258;2022-12-16T04:03:39;-2.40;99.90
41762;DHT22;27441;50.860;0.258;2022-12-16T04:06:04;-2.40;99.90
41762;DHT22;27441;50.860;0.258;2022-12-16T04:08:30;-2.40;99.90
41762;DHT22;27441;50.860;0.258;2022-12-16T04:10:56;-2.40;99.90
41762;DHT22;27441;50.860;0.258;2022-12-16T04:13:40;-2.40;99.90
41762;DHT22;27441;50.860;0.258;2022-12-16T04:16:25;-2.40;99.90
41762;DHT22;27441;50.860;0.258;2022-12-16T04:19:31;-2.40;99.90
41762;DHT22;27441;50.860;0.258;2022-12-16T04:22:18;-2.40;99.90
41762;DHT22;27441;50.860;0.258;2022-12-16T04:25:05;-2.50;99.90
41762;DHT22;27441;50.860;0.258;2022-12-16T04:27:31;-2.50;99.90
41762;DHT22;27441;50.860;0.258;2022-12-16T04:29:57;-2.50;99.90
41762;DHT22;27441;50.860;0.258;2022-12-16T04:32:41;-2.50;99.90
41762;DHT22;27441;50.860;0.258;2022-12-16T04:35:25;-2.50;99.90
41762;DHT22;27441;50.860;0.258;2022-12-16T04:38:10;-2.50;99.90
41762;DHT22;27441;50.860;0.258;2022-12-16T04:40:54;-2.60;99.90
41762;DHT22;27441;50.860;0.258;2022-12-16T04:43:38;-2.60;99.90
41762;DHT22;27441;50.860;0.258;2022-12-16T04:46:22;-2.70;99.90
41762;DHT22;27441;50.860;0.258;2022-12-16T04:49:06;-2.70;99.90
41762;DHT22;27441;50.860;0.258;2022-12-16T04:51:51;-2.70;99.90
41762;DHT22;27441;50.860;0.258;2022-12-16T04:54:35;-2.70;99.90
41762;DHT22;27441;50.860;0.258;2022-12-16T04:57:19;-2.70;99.90
41762;DHT22;27441;50.860;0.258;2022-12-16T05:00:03;-2.80;99.90
41762;DHT22;27441;50.860;0.258;2022-12-16T05:02:48;-2.80;99.90
41762;DHT22;27441;50.860;0.258;2022-12-16T05:05:32;-2.90;99.90
41762;DHT22;27441;50.860;0.258;2022-12-16T05:08:16;-3.00;99.90
41762;DHT22;27441;50.860;0.258;2022-12-16T05:11:00;-3.00;99.90
41762;DHT22;27441;50.860;0.258;2022-12-16T05:13:44;-3.00;99.90
41762;DHT22;27441;50.860;0.258;2022-12-16T05:16:28;-3.00;99.90
41762;DHT22;27441;50.860;0.258;2022-12-16T05:19:12;-3.10;99.90
41762;DHT22;27441;50.860;0.258;2022-12-16T05:21:56;-3.20;99.90
41762;DHT22;27441;50.860;0.258;2022-12-16T05:24:40;-3.20;99.90
41762;DHT22;27441;50.860;0.258;2022-12-16T05:27:24;-3.20;99.90
41762;DHT22;27441;50.860;0.258;2022-12-16T05:30:08;-3.10;99.90
41762;DHT22;27441;50.860;0.258;2022-12-16T05:32:53;-3.10;99.90
41762;DHT22;27441;50.860;0.258;2022-12-16T05:35:37;-3.10;99.90
41762;DHT22;27441;50.860;0.258;2022-12-16T05:38:21;-3.20;99.90
41762;DHT22;27441;50.860;0.258;2022-12-16T05:41:05;-3.30;99.90
41762;DHT22;27441;50.860;0.258;2022-12-16T05:43:49;-3.30;99.90
41762;DHT22;27441;50.860;0.258;2022-12-16T05:46:34;-3.30;99.90
41762;DHT22;27441;50.860;0.258;2022-12-16T05:49:17;-3.30;99.90
41762;DHT22;27441;50.860;0.258;2022-12-16T05:52:01;-3.30;99.90
41762;DHT22;27441;50.860;0.258;2022-12-16T05:54:46;-3.30;99.90
41762;DHT22;27441;50.860;0.258;2022-12-16T05:57:30;-3.30;99.90
41762;DHT22;27441;50.860;0.258;2022-12-16T06:00:14;-3.30;99.90
41762;DHT22;27441;50.860;0.258;2022-12-16T06:02:58;-3.30;99.90
41762;DHT22;27441;50.860;0.258;2022-12-16T06:05:42;-3.30;99.90
41762;DHT22;27441;50.860;0.258;2022-12-16T06:08:26;-3.30;99.90
41762;DHT22;27441;50.860;0.258;2022-12-16T06:11:09;-3.30;99.90
41762;DHT22;27441;50.860;0.258;2022-12-16T06:13:54;-3.30;99.90
41762;DHT22;27441;50.860;0.258;2022-12-16T06:16:38;-3.30;99.90
41762;DHT22;27441;50.860;0.258;2022-12-16T06:19:22;-3.30;99.90
41762;DHT22;27441;50.860;0.258;2022-12-16T06:22:06;-3.30;99.90
41762;DHT22;27441;50.860;0.258;2022-12-16T06:24:50;-3.30;99.90
41762;DHT22;27441;50.860;0.258;2022-12-16T06:27:35;-3.30;99.90
41762;DHT22;27441;50.860;0.258;2022-12-16T06:30:18;-3.30;99.90
41762;DHT22;27441;50.860;0.258;2022-12-16T06:33:02;-3.30;99.90
41762;DHT22;27441;50.860;0.258;2022-12-16T06:35:46;-3.30;99.90
41762;DHT22;27441;50.860;0.258;2022-12-16T06:38:30;-3.40;99.90
41762;DHT22;27441;50.860;0.258;2022-12-16T06:41:14;-3.40;99.90
41762;DHT22;27441;50.860;0.258;2022-12-16T06:43:58;-3.40;99.90
41762;DHT22;27441;50.860;0.258;2022-12-16T06:46:42;-3.40;99.90
41762;DHT22;27441;50.860;0.258;2022-12-16T06:49:26;-3.40;99.90
41762;DHT22;27441;50.860;0.258;2022-12-16T06:52:10;-3.40;99.90
41762;DHT22;27441;50.860;0.258;2022-12-16T06:54:54;-3.40;99.90
41762;DHT22;27441;50.860;0.258;2022-12-16T06:57:38;-3.40;99.90
41762;DHT22;27441;50.860;0.258;2022-12-16T07:00:22;-3.40;99.90
41762;DHT22;27441;50.860;0.258;2022-12-16T07:03:06;-3.50;99.90
41762;DHT22;27441;50.860;0.258;2022-12-16T07:05:53;-3.40;99.90
41762;DHT22;27441;50.860;0.258;2022-12-16T07:08:38;-3.40;99.90
41762;DHT22;27441;50.860;0.258;2022-12-16T07:11:22;-3.40;99.90
41762;DHT22;27441;50.860;0.258;2022-12-16T07:14:06;-3.30;99.90
41762;DHT22;27441;50.860;0.258;2022-12-16T07:16:50;-3.30;99.90
41762;DHT22;27441;50.860;0.258;2022-12-16T07:19:34;-3.40;99.90
41762;DHT22;27441;50.860;0.258;2022-12-16T07:22:18;-3.40;99.90
41762;DHT22;27441;50.860;0.258;2022-12-16T07:25:02;-3.30;99.90
41762;DHT22;27441;50.860;0.258;2022-12-16T07:27:46;-3.40;99.90
41762;DHT22;27441;50.860;0.258;2022-12-16T07:30:30;-3.40;99.90
41762;DHT22;27441;50.860;0.258;2022-12-16T07:33:15;-3.40;99.90
41762;DHT22;27441;50.860;0.258;2022-12-16T07:35:59;-3.40;99.90
41762;DHT22;27441;50.860;0.258;2022-12-16T07:38:50;-3.40;99.90
41762;DHT22;27441;50.860;0.258;2022-12-16T07:41:34;-3.40;99.90
41762;DHT22;27441;50.860;0.258;2022-12-16T07:44:18;-3.30;99.90
41762;DHT22;27441;50.860;0.258;2022-12-16T07:47:03;-3.30;99.90
41762;DHT22;27441;50.860;0.258;2022-12-16T07:49:46;-3.30;99.90
41762;DHT22;27441;50.860;0.258;2022-12-16T07:52:30;-3.30;99.90
41762;DHT22;27441;50.860;0.258;2022-12-16T07:55:15;-3.20;99.90
41762;DHT22;27441;50.860;0.258;2022-12-16T07:57:59;-3.20;99.90
41762;DHT22;27441;50.860;0.258;2022-12-16T08:00:43;-3.10;99.90
41762;DHT22;27441;50.860;0.258;2022-12-16T08:03:27;-3.10;99.90
41762;DHT22;27441;50.860;0.258;2022-12-16T08:06:11;-3.10;99.90
41762;DHT22;27441;50.860;0.258;2022-12-16T08:08:55;-3.10;99.90
41762;DHT22;27441;50.860;0.258;2022-12-16T08:11:39;-3.10;99.90
41762;DHT22;27441;50.860;0.258;2022-12-16T08:14:23;-3.20;99.90
41762;DHT22;27441;50.860;0.258;2022-12-16T08:17:08;-3.10;99.90
41762;DHT22;27441;50.860;0.258;2022-12-16T08:19:52;-3.10;99.90
41762;DHT22;27441;50.860;0.258;2022-12-16T08:22:36;-3.10;99.90
41762;DHT22;27441;50.860;0.258;2022-12-16T08:25:20;-3.10;99.90
41762;DHT22;27441;50.860;0.258;2022-12-16T08:28:04;-3.10;99.90
41762;DHT22;27441;50.860;0.258;2022-12-16T08:30:49;-3.00;99.90
41762;DHT22;27441;50.860;0.258;2022-12-16T08:33:33;-3.00;99.90
41762;DHT22;27441;50.860;0.258;2022-12-16T08:36:17;-3.00;99.90
41762;DHT22;27441;50.860;0.258;2022-12-16T08:39:01;-2.90;99.90
41762;DHT22;27441;50.860;0.258;2022-12-16T08:41:45;-2.90;99.90
41762;DHT22;27441;50.860;0.258;2022-12-16T08:44:29;-2.80;99.90
41762;DHT22;27441;50.860;0.258;2022-12-16T08:47:14;-2.80;99.90
41762;DHT22;27441;50.860;0.258;2022-12-16T08:49:58;-2.80;99.90
41762;DHT22;27441;50.860;0.258;2022-12-16T08:52:42;-2.70;99.90
41762;DHT22;27441;50.860;0.258;2022-12-16T08:55:26;-2.70;99.90
41762;DHT22;27441;50.860;0.258;2022-12-16T08:58:10;-2.60;99.90
41762;DHT22;27441;50.860;0.258;2022-12-16T09:00:54;-2.50;99.90
41762;DHT22;27441;50.860;0.258;2022-12-16T09:03:39;-2.50;99.90
41762;DHT22;27441;50.860;0.258;2022-12-16T09:06:23;-2.40;99.90
41762;DHT22;27441;50.860;0.258;2022-12-16T09:09:08;-2.40;99.90
41762;DHT22;27441;50.860;0.258;2022-12-16T09:11:51;-2.40;99.90
41762;DHT22;27441;50.860;0.258;2022-12-16T09:14:35;-2.30;99.90
41762;DHT22;27441;50.860;0.258;2022-12-16T09:17:20;-2.30;99.90
41762;DHT22;27441;50.860;0.258;2022-12-16T09:20:04;-2.20;99.90
41762;DHT22;27441;50.860;0.258;2022-12-16T09:22:48;-2.20;99.90
41762;DHT22;27441;50.860;0.258;2022-12-16T09:25:32;-2.10;99.90
41762;DHT22;27441;50.860;0.258;2022-12-16T09:28:16;-2.10;99.90
41762;DHT22;27441;50.860;0.258;2022-12-16T09:31:00;-2.10;99.90
41762;DHT22;27441;50.860;0.258;2022-12-16T09:33:44;-2.00;99.90
41762;DHT22;27441;50.860;0.258;2022-12-16T09:36:33;-1.90;99.90
41762;DHT22;27441;50.860;0.258;2022-12-16T09:39:17;-1.80;99.90
41762;DHT22;27441;50.860;0.258;2022-12-16T09:47:55;-1.70;99.90
41762;DHT22;27441;50.860;0.258;2022-12-16T09:50:40;-1.70;99.90
41762;DHT22;27441;50.860;0.258;2022-12-16T09:53:26;-1.60;99.90
41762;DHT22;27441;50.860;0.258;2022-12-16T09:56:15;-1.50;99.90
41762;DHT22;27441;50.860;0.258;2022-12-16T09:59:00;-1.50;99.90
41762;DHT22;27441;50.860;0.258;2022-12-16T10:01:45;-1.40;99.90
41762;DHT22;27441;50.860;0.258;2022-12-16T10:04:29;-1.40;99.90
41762;DHT22;27441;50.860;0.258;2022-12-16T10:07:17;-1.30;99.90
41762;DHT22;27441;50.860;0.258;2022-12-16T10:10:28;-1.30;99.90
41762;DHT22;27441;50.860;0.258;2022-12-16T10:13:39;-1.20;99.90
41762;DHT22;27441;50.860;0.258;2022-12-16T10:16:39;-1.10;99.90
41762;DHT22;27441;50.860;0.258;2022-12-16T10:25:50;-0.90;99.90
41762;DHT22;27441;50.860;0.258;2022-12-16T10:28:51;-0.80;99.90
41762;DHT22;27441;50.860;0.258;2022-12-16T10:31:38;-0.70;99.90
41762;DHT22;27441;50.860;0.258;2022-12-16T10:34:28;-0.60;99.90
41762;DHT22;27441;50.860;0.258;2022-12-16T10:37:31;-0.50;99.90
41762;DHT22;27441;50.860;0.258;2022-12-16T10:40:18;-0.40;99.90
41762;DHT22;27441;50.860;0.258;2022-12-16T10:43:12;-0.30;99.90
41762;DHT22;27441;50.860;0.258;2022-12-16T10:46:09;-0.20;99.90
41762;DHT22;27441;50.860;0.258;2022-12-16T10:48:55;-0.20;99.90
41762;DHT22;27441;50.860;0.258;2022-12-16T10:51:40;-0.10;99.90
41762;DHT22;27441;50.860;0.258;2022-12-16T10:54:32;-0.10;99.90
41762;DHT22;27441;50.860;0.258;2022-12-16T10:57:40;0.00;99.90
41762;DHT22;27441;50.860;0.258;2022-12-16T11:00:43;0.00;99.90
41762;DHT22;27441;50.860;0.258;2022-12-16T11:03:30;0.00;99.90
41762;DHT22;27441;50.860;0.258;2022-12-16T11:06:19;0.10;99.90
41762;DHT22;27441;50.860;0.258;2022-12-16T11:09:29;0.20;99.90
41762;DHT22;27441;50.860;0.258;2022-12-16T11:12:26;0.20;99.90
41762;DHT22;27441;50.860;0.258;2022-12-16T11:15:23;0.30;99.90
41762;DHT22;27441;50.860;0.258;2022-12-16T11:18:34;0.30;99.90
41762;DHT22;27441;50.860;0.258;2022-12-16T11:21:31;0.40;99.90
41762;DHT22;27441;50.860;0.258;2022-12-16T11:24:18;0.50;99.90
41762;DHT22;27441;50.860;0.258;2022-12-16T11:27:05;0.60;99.90
41762;DHT22;27441;50.860;0.258;2022-12-16T11:29:54;0.70;99.90
41762;DHT22;27441;50.860;0.258;2022-12-16T11:32:49;0.80;99.90
41762;DHT22;27441;50.860;0.258;2022-12-16T11:35:38;0.90;99.90
41762;DHT22;27441;50.860;0.258;2022-12-16T11:38:37;0.90;99.90
41762;DHT22;27441;50.860;0.258;2022-12-16T11:41:28;0.90;99.90
41762;DHT22;27441;50.860;0.258;2022-12-16T11:44:15;1.00;99.90
41762;DHT22;27441;50.860;0.258;2022-12-16T11:47:00;1.00;99.90
41762;DHT22;27441;50.860;0.258;2022-12-16T11:49:44;1.00;99.90
41762;DHT22;27441;50.860;0.258;2022-12-16T11:52:29;1.00;99.90
41762;DHT22;27441;50.860;0.258;2022-12-16T11:55:22;1.10;99.90
41762;DHT22;27441;50.860;0.258;2022-12-16T12:01:27;1.20;99.90
41762;DHT22;27441;50.860;0.258;2022-12-16T12:04:14;1.30;99.90
41762;DHT22;27441;50.860;0.258;2022-12-16T12:07:05;1.40;99.90
41762;DHT22;27441;50.860;0.258;2022-12-16T12:10:00;1.50;99.90
41762;DHT22;27441;50.860;0.258;2022-12-16T12:13:16;1.50;99.90
41762;DHT22;27441;50.860;0.258;2022-12-16T12:16:14;1.50;99.90
41762;DHT22;27441;50.860;0.258;2022-12-16T12:21:56;1.40;99.90
41762;DHT22;27441;50.860;0.258;2022-12-16T12:25:03;1.40;99.90
41762;DHT22;27441;50.860;0.258;2022-12-16T12:27:57;1.40;99.90
41762;DHT22;27441;50.860;0.258;2022-12-16T12:36:50;1.40;99.90
41762;DHT22;27441;50.860;0.258;2022-12-16T12:39:58;1.50;99.90
41762;DHT22;27441;50.860;0.258;2022-12-16T12:42:49;1.70;99.90
41762;DHT22;27441;50.860;0.258;2022-12-16T12:57:43;1.80;99.90
41762;DHT22;27441;50.860;0.258;2022-12-16T13:00:33;1.80;99.90
41762;DHT22;27441;50.860;0.258;2022-12-16T13:06:22;1.70;99.90
41762;DHT22;27441;50.860;0.258;2022-12-16T13:09:32;1.70;99.90
41762;DHT22;27441;50.860;0.258;2022-12-16T13:15:09;1.70;99.90
41762;DHT22;27441;50.860;0.258;2022-12-16T13:20:50;1.70;99.90
41762;DHT22;27441;50.860;0.258;2022-12-16T13:23:35;1.70;99.90
41762;DHT22;27441;50.860;0.258;2022-12-16T13:26:23;1.70;99.90
41762;DHT22;27441;50.860;0.258;2022-12-16T13:32:01;1.80;99.90
41762;DHT22;27441;50.860;0.258;2022-12-16T13:34:57;1.80;99.90
41762;DHT22;27441;50.860;0.258;2022-12-16T13:37:43;1.70;99.90
41762;DHT22;27441;50.860;0.258;2022-12-16T13:40:46;1.70;99.90
41762;DHT22;27441;50.860;0.258;2022-12-16T13:43:42;1.60;99.90
41762;DHT22;27441;50.860;0.258;2022-12-16T13:55:20;1.60;99.90
41762;DHT22;27441;50.860;0.258;2022-12-16T13:58:12;1.70;99.90
41762;DHT22;27441;50.860;0.258;2022-12-16T14:01:02;1.60;99.90
41762;DHT22;27441;50.860;0.258;2022-12-16T14:03:48;1.60;99.90
41762;DHT22;27441;50.860;0.258;2022-12-16T14:06:33;1.70;99.90
41762;DHT22;27441;50.860;0.258;2022-12-16T14:09:29;1.70;99.90
41762;DHT22;27441;50.860;0.258;2022-12-16T14:12:31;1.60;99.90
41762;DHT22;27441;50.860;0.258;2022-12-16T14:15:27;1.60;99.90
41762;DHT22;27441;50.860;0.258;2022-12-16T14:18:27;1.60;99.90
41762;DHT22;27441;50.860;0.258;2022-12-16T14:21:14;1.50;99.90
41762;DHT22;27441;50.860;0.258;2022-12-16T14:24:03;1.50;99.90
41762;DHT22;27441;50.860;0.258;2022-12-16T14:26:50;1.40;99.90
41762;DHT22;27441;50.860;0.258;2022-12-16T14:29:33;1.40;99.90
41762;DHT22;27441;50.860;0.258;2022-12-16T14:32:31;1.40;99.90
41762;DHT22;27441;50.860;0.258;2022-12-16T14:35:19;1.40;99.90
41762;DHT22;27441;50.860;0.258;2022-12-16T14:41:13;1.50;99.90
41762;DHT22;27441;50.860;0.258;2022-12-16T14:43:58;1.40;99.90
41762;DHT22;27441;50.860;0.258;2022-12-16T14:46:47;1.40;99.90
41762;DHT22;27441;50.860;0.258;2022-12-16T14:49:32;1.30;99.90
41762;DHT22;27441;50.860;0.258;2022-12-16T14:52:25;1.30;99.90
41762;DHT22;27441;50.860;0.258;2022-12-16T14:55:10;1.30;99.90
41762;DHT22;27441;50.860;0.258;2022-12-16T14:58:02;1.30;99.90
41762;DHT22;27441;50.860;0.258;2022-12-16T15:00:47;1.20;99.90
41762;DHT22;27441;50.860;0.258;2022-12-16T15:06:25;1.00;99.90
41762;DHT22;27441;50.860;0.258;2022-12-16T15:09:17;1.00;99.90
41762;DHT22;27441;50.860;0.258;2022-12-16T15:12:02;0.90;99.90
41762;DHT22;27441;50.860;0.258;2022-12-16T15:14:47;0.90;99.90
41762;DHT22;27441;50.860;0.258;2022-12-16T15:17:34;0.80;99.90
41762;DHT22;27441;50.860;0.258;2022-12-16T15:20:22;0.80;99.90
41762;DHT22;27441;50.860;0.258;2022-12-16T15:23:19;0.70;99.90
41762;DHT22;27441;50.860;0.258;2022-12-16T15:26:03;0.60;99.90
41762;DHT22;27441;50.860;0.258;2022-12-16T15:28:48;0.60;99.90
41762;DHT22;27441;50.860;0.258;2022-12-16T15:31:33;0.50;99.90
41762;DHT22;27441;50.860;0.258;2022-12-16T15:34:22;0.50;99.90
41762;DHT22;27441;50.860;0.258;2022-12-16T15:37:40;0.40;99.90
41762;DHT22;27441;50.860;0.258;2022-12-16T15:40:25;0.30;99.90
41762;DHT22;27441;50.860;0.258;2022-12-16T15:43:29;0.40;99.90
41762;DHT22;27441;50.860;0.258;2022-12-16T15:46:20;0.30;99.90
41762;DHT22;27441;50.860;0.258;2022-12-16T15:49:04;0.20;99.90
41762;DHT22;27441;50.860;0.258;2022-12-16T15:51:57;0.20;99.90
41762;DHT22;27441;50.860;0.258;2022-12-16T15:54:48;0.10;99.90
41762;DHT22;27441;50.860;0.258;2022-12-16T15:57:33;0.10;99.90
41762;DHT22;27441;50.860;0.258;2022-12-16T16:03:02;0.00;99.90
41762;DHT22;27441;50.860;0.258;2022-12-16T16:05:46;0.00;99.90
41762;DHT22;27441;50.860;0.258;2022-12-16T16:08:32;0.00;99.90
41762;DHT22;27441;50.860;0.258;2022-12-16T16:11:15;-0.10;99.90
41762;DHT22;27441;50.860;0.258;2022-12-16T16:13:59;-0.20;99.90
41762;DHT22;27441;50.860;0.258;2022-12-16T16:16:43;-0.20;99.90
41762;DHT22;27441;50.860;0.258;2022-12-16T16:19:27;-0.30;99.90
41762;DHT22;27441;50.860;0.258;2022-12-16T16:22:15;-0.30;99.90
41762;DHT22;27441;50.860;0.258;2022-12-16T16:25:00;-0.40;99.90
41762;DHT22;27441;50.860;0.258;2022-12-16T16:27:46;-0.40;99.90
41762;DHT22;27441;50.860;0.258;2022-12-16T16:30:30;-0.40;99.90
41762;DHT22;27441;50.860;0.258;2022-12-16T16:33:13;-0.40;99.90
41762;DHT22;27441;50.860;0.258;2022-12-16T16:35:58;-0.40;99.90
41762;DHT22;27441;50.860;0.258;2022-12-16T16:38:42;-0.50;99.90
41762;DHT22;27441;50.860;0.258;2022-12-16T16:41:26;-0.50;99.90
41762;DHT22;27441;50.860;0.258;2022-12-16T16:44:10;-0.50;99.90
41762;DHT22;27441;50.860;0.258;2022-12-16T16:46:55;-0.60;99.90
41762;DHT22;27441;50.860;0.258;2022-12-16T16:49:40;-0.60;99.90
41762;DHT22;27441;50.860;0.258;2022-12-16T16:52:26;-0.70;99.90
41762;DHT22;27441;50.860;0.258;2022-12-16T16:55:17;-0.70;99.90
41762;DHT22;27441;50.860;0.258;2022-12-16T16:58:05;-0.80;99.90
41762;DHT22;27441;50.860;0.258;2022-12-16T17:00:50;-0.80;99.90
41762;DHT22;27441;50.860;0.258;2022-12-16T17:03:34;-0.80;99.90
41762;DHT22;27441;50.860;0.258;2022-12-16T17:06:18;-0.80;99.90
41762;DHT22;27441;50.860;0.258;2022-12-16T17:09:02;-0.80;99.90
41762;DHT22;27441;50.860;0.258;2022-12-16T17:11:46;-0.90;99.90
41762;DHT22;27441;50.860;0.258;2022-12-16T17:14:30;-0.80;99.90
41762;DHT22;27441;50.860;0.258;2022-12-16T17:17:14;-0.80;99.90
41762;DHT22;27441;50.860;0.258;2022-12-16T17:19:58;-0.70;99.90
41762;DHT22;27441;50.860;0.258;2022-12-16T17:22:42;-0.60;99.90
41762;DHT22;27441;50.860;0.258;2022-12-16T17:25:27;-0.60;99.90
41762;DHT22;27441;50.860;0.258;2022-12-16T17:28:10;-0.60;99.90
41762;DHT22;27441;50.860;0.258;2022-12-16T17:30:54;-0.60;99.90
41762;DHT22;27441;50.860;0.258;2022-12-16T17:33:39;-0.60;99.90
41762;DHT22;27441;50.860;0.258;2022-12-16T17:36:23;-0.60;99.90
41762;DHT22;27441;50.860;0.258;2022-12-16T17:39:07;-0.60;99.90
41762;DHT22;27441;50.860;0.258;2022-12-16T17:41:52;-0.70;99.90
41762;DHT22;27441;50.860;0.258;2022-12-16T17:44:36;-0.70;99.90
41762;DHT22;27441;50.860;0.258;2022-12-16T17:47:20;-0.70;99.90
41762;DHT22;27441;50.860;0.258;2022-12-16T17:50:04;-0.70;99.90
41762;DHT22;27441;50.860;0.258;2022-12-16T17:52:52;-0.60;99.90
41762;DHT22;27441;50.860;0.258;2022-12-16T17:55:37;-0.60;99.90
41762;DHT22;27441;50.860;0.258;2022-12-16T17:58:27;-0.60;99.90
41762;DHT22;27441;50.860;0.258;2022-12-16T18:01:11;-0.60;99.90
41762;DHT22;27441;50.860;0.258;2022-12-16T18:03:55;-0.70;99.90
41762;DHT22;27441;50.860;0.258;2022-12-16T18:06:40;-0.70;99.90
41762;DHT22;27441;50.860;0.258;2022-12-16T18:09:24;-0.80;99.90
41762;DHT22;27441;50.860;0.258;2022-12-16T18:12:08;-0.70;99.90
41762;DHT22;27441;50.860;0.258;2022-12-16T18:14:52;-0.80;99.90
41762;DHT22;27441;50.860;0.258;2022-12-16T18:17:35;-0.80;99.90
41762;DHT22;27441;50.860;0.258;2022-12-16T18:20:19;-0.80;99.90
41762;DHT22;27441;50.860;0.258;2022-12-16T18:23:03;-0.80;99.90
41762;DHT22;27441;50.860;0.258;2022-12-16T18:26:00;-0.80;99.90
41762;DHT22;27441;50.860;0.258;2022-12-16T18:28:45;-0.90;99.90
41762;DHT22;27441;50.860;0.258;2022-12-16T18:31:29;-0.90;99.90
41762;DHT22;27441;50.860;0.258;2022-12-16T18:34:13;-0.90;99.90
41762;DHT22;27441;50.860;0.258;2022-12-16T18:36:58;-0.90;99.90
41762;DHT22;27441;50.860;0.258;2022-12-16T18:39:42;-0.90;99.90
41762;DHT22;27441;50.860;0.258;2022-12-16T18:42:26;-1.00;99.90